Warning: Javascript must be enabled to use all the features on this page!


Page Loading - Please Wait...

* We've detected you're using a mobile device. Find our Next Generation Station Page here.
Click to hideNews Bulletins

Peak Streamflow for the Nation

USGS 03550500 NOTTELY RIVER NEAR BLAIRSVILLE, GA

Union County, Georgia
Hydrologic Unit Code 06020002
Latitude  34°50'31", Longitude  83°56'09" NAD83
Drainage area 74.8  square miles
Contributing drainage area 74.8  square miles
Gage datum 1,810.49 feet above NAVD88
Output formats
Table
Graph
Tab-separated file
peakfq (watstore) format
Reselect output format
Water
Year
Date Gage
Height
(feet)
Stream-
flow
(cfs)
1943 1942-12-29 8.85 2,860
1944 1944-03-29 6.10 1,840
1945 1945-09-16 4.82 1,040
1946 1946-02-10 11.18 4,160
1947 1947-01-20 9.17 3,100
1948 1948-02-12 6.88 1,980
1949 1949-01-05 8.86 2,900
1950 1950-03-13 11.43 4,320
1951 1951-03-29 7.27 2,140
1952 1952-03-11 16.78 8,500
1953 1953-02-21 10.00 3,460
1954 1954-01-16 11.05 4,080
1955 1955-05-22 11.59 4,430
1956 1956-04-15 11.75 4,530
1957 1957-04-05 10.30 3,630
1958 1957-12-20 7.66 2,310
1959 1959-01-21 10.66 3,850
1960 1960-02-10 7.15 2,120
1961 1961-02-25 13.29 4,950
1962 1961-12-12 12.05 4,300
1963 1963-04-30 9.88 3,300
1964 1964-03-26 9.43 3,100
1965 1964-10-04 16.28 7,950
1966 1966-02-13 14.22 5,640
1967 1967-08-23 21.04 12,900
1968 1968-03-12 9.10 3,060
1969 1969-06-15 10.97 3,890
1970 1969-12-30 8.83 2,940
1971 1971-07-31 8.64 2,860
1972 1971-12-07 7.14 2,180
1973 1973-05-28 16.04 7,230
1974 1973-12-05 10.71 3,780
1975 1975-03-13 7.18 2,200
1976 1976-05-15 14.26 6,080
1977 1977-03-30 12.93 5,260
1978 1978-01-25 9.00 3,300
1979 1979-03-04 15.13 6,770
1980 1980-03-21 9.89 3,740
1981 1981-05-27 8.82 3,210
1982 1982-02-03 9.40 3,500
1983 1983-02-02 11.33 4,460
1984 1984-03-20 6.65 2,120
1985 1985-02-01 4.60 1,020
1986 1986-03-13 4.95 1,230
1987 1986-11-26 6.92 2,300
1988 1988-01-20 6.63 2,100
1989 1989-06-20 6.30 1,940
1990 1990-02-16 11.84 4,600
1991 1991-03-29 9.81 3,370
1992 1992-07-02 8.48 3,200
1993 1992-11-22 9.61 3,730
1994 1994-03-27 10.00 3,450
1995 1995-01-14 10.53 4,130
1996 1996-01-27 13.17 5,420
1997 1996-12-01 8.99 3,470
1998 1998-01-07 13.73 5,740
1999 1999-05-07 6.87 2,350
2000 2000-04-04 6.64 2,230
2008 2008-08-26 8.12 3,150
2009 2009-09-20 8.26 3,190
2010 2009-11-11 11.93 5,080
2011 2010-11-30 9.14 3,400
2012 2011-11-28 8.39 3,020
2013 2013-01-30 13.92 6,070
2014 2013-11-26 8.28 2,960
2015 2014-10-14 11.49 4,580
2016 2015-12-24 14.88 6,840
2017 2017-01-22 3.95 834
2018 2018-05-30 10.05 3,870
2019 2019-04-14 9.51 3,590
2020 2020-02-06 10.26 3,970
2021 2021-03-26 14.88 6,840
2022 2022-02-04 9.21 3,440
2023 2023-01-04 6.79 2,240